Terminal Aerodrome Forecast
Issued by NWS

Home | Current Version | Previous Version | Text Only | Print | Product List | Glossary On
Versions: 1 2 3 4 5 6 7 8 9 10 11 12
000
FTUS45 KRIW 301100
TAFCPR
TAF
KCPR 301122Z 3012/3112 VRB05KT P6SM BCFG FEW005 SCT100 BKN150
     FM301500 07007KT P6SM SCT050 BKN200
     FM310200 VRB05KT P6SM SCT250=

USA.gov is the U.S. government's official web portal to all federal, state and local government web resources and services.